createdAt,value
2024-04-12T00:00:01.215Z,87
2024-04-12T00:15:01.059Z,87
2024-04-12T00:30:01.349Z,87
2024-04-12T00:45:00.336Z,87
2024-04-12T01:00:01.399Z,87
2024-04-12T01:15:01.009Z,87
2024-04-12T01:30:01.246Z,87
2024-04-12T01:45:00.513Z,87
2024-04-12T02:00:00.863Z,87
2024-04-12T02:15:00.673Z,87
2024-04-12T02:30:00.742Z,87
2024-04-12T02:45:00.254Z,87
2024-04-12T03:00:00.890Z,87
2024-04-12T03:15:00.334Z,87
2024-04-12T03:30:00.439Z,88
2024-04-12T03:45:00.245Z,88
2024-04-12T04:00:00.859Z,88
2024-04-12T04:15:00.809Z,88
2024-04-12T04:30:00.541Z,86
2024-04-12T04:45:00.324Z,86
2024-04-12T05:00:01.011Z,86
2024-04-12T05:15:01.297Z,86
2024-04-12T05:30:00.551Z,86
2024-04-12T05:45:00.408Z,88
2024-04-12T06:00:03.347Z,88
2024-04-12T06:15:00.325Z,88
2024-04-12T06:30:01.203Z,86
2024-04-12T06:45:00.473Z,86
2024-04-12T07:00:00.978Z,86
2024-04-12T07:15:00.882Z,86
2024-04-12T07:30:00.586Z,84
2024-04-12T07:45:00.360Z,84
2024-04-12T08:00:01.650Z,84
2024-04-12T08:15:00.787Z,84
2024-04-12T08:30:00.518Z,82
2024-04-12T08:45:00.317Z,82
2024-04-12T09:00:01.256Z,82
2024-04-12T09:15:00.929Z,82
2024-04-12T09:30:00.592Z,81
2024-04-12T09:45:00.413Z,81
2024-04-12T10:00:00.820Z,81
2024-04-12T10:15:00.707Z,81
2024-04-12T10:30:00.729Z,80
2024-04-12T10:45:00.638Z,80
2024-04-12T11:00:00.762Z,80
2024-04-12T11:15:00.953Z,80
2024-04-12T11:30:00.701Z,71
2024-04-12T11:45:00.691Z,72
2024-04-12T12:00:01.458Z,72
2024-04-12T12:15:00.886Z,72
2024-04-12T12:30:00.374Z,72
2024-04-12T12:45:00.418Z,66
2024-04-12T13:00:01.954Z,66
2024-04-12T13:15:00.630Z,66
2024-04-12T13:30:00.562Z,70
2024-04-12T13:45:00.399Z,70
2024-04-12T14:00:01.894Z,70
2024-04-12T14:15:00.741Z,70
2024-04-12T14:30:00.800Z,71
2024-04-12T14:45:00.322Z,71
2024-04-12T15:00:01.208Z,71
2024-04-12T15:15:00.611Z,71
2024-04-12T15:30:01.149Z,71
2024-04-12T15:45:00.438Z,71
2024-04-12T16:00:00.949Z,71
2024-04-12T16:15:00.435Z,71
2024-04-12T16:30:00.679Z,74
2024-04-12T16:45:00.860Z,74
2024-04-12T17:00:01.396Z,74
2024-04-12T17:15:00.652Z,74
2024-04-12T17:30:00.989Z,81
2024-04-12T17:45:00.552Z,82
2024-04-12T18:00:00.781Z,82
2024-04-12T18:15:00.612Z,82
2024-04-12T18:30:00.890Z,86
2024-04-12T18:45:00.577Z,86
2024-04-12T19:00:05.066Z,86
2024-04-12T19:15:00.504Z,86
2024-04-12T19:30:00.535Z,89
2024-04-12T19:45:00.402Z,89
2024-04-12T20:00:01.042Z,89
2024-04-12T20:15:00.500Z,89
2024-04-12T20:30:00.816Z,92
2024-04-12T20:45:00.405Z,92
2024-04-12T22:00:00.551Z,94
2024-04-12T22:15:01.261Z,94
2024-04-12T22:30:00.718Z,95
2024-04-12T22:45:01.518Z,95
2024-04-12T23:00:00.909Z,95
2024-04-12T23:15:00.403Z,95
2024-04-12T23:30:00.371Z,94
2024-04-12T23:45:00.315Z,95
